Time;durP1;ratioP1;P1;durP2;ratioP2;P2;SDS_P1;SDS_P2;PMS_P1;PMS_P2;Temp;Humidity;BMP_temperature;BMP_pressure;BME280_temperature;BME280_humidity;BME280_pressure;Samples;Min_cycle;Max_cycle;Signal;HPM_P1;HPM_P2
2023/09/10 00:01:25;;;;;;;38.25;34.75;;;17.30;99.90;;;;;;6241224;23;20031;-85
2023/09/10 00:03:51;;;;;;;38.45;35.05;;;17.30;99.90;;;;;;6242776;23;20111;-85
2023/09/10 00:06:17;;;;;;;37.72;33.90;;;17.30;99.90;;;;;;6240383;23;20164;-85
2023/09/10 00:08:42;;;;;;;43.45;39.80;;;17.20;99.90;;;;;;6242393;23;20008;-84
2023/09/10 00:11:08;;;;;;;35.72;32.30;;;17.20;99.90;;;;;;6216195;23;20099;-85
2023/09/10 00:13:40;;;;;;;37.53;34.17;;;17.20;99.90;;;;;;6241278;23;20018;-84
2023/09/10 00:16:05;;;;;;;39.95;36.53;;;17.20;99.90;;;;;;6216063;23;20363;-84
2023/09/10 00:18:34;;;;;;;42.38;38.38;;;17.20;99.90;;;;;;6242609;23;20071;-84
2023/09/10 00:21:01;;;;;;;38.80;35.40;;;17.20;99.90;;;;;;6240632;23;20426;-85
2023/09/10 00:23:26;;;;;;;43.97;40.05;;;17.20;99.90;;;;;;6266973;22;20339;-85
2023/09/10 00:25:54;;;;;;;40.53;36.95;;;17.20;99.90;;;;;;6241240;23;20442;-85
2023/09/10 00:28:20;;;;;;;42.58;38.63;;;17.10;99.90;;;;;;6240918;23;20087;-85
2023/09/10 00:30:52;;;;;;;45.08;41.15;;;17.10;99.90;;;;;;6242766;22;20105;-84
2023/09/10 00:33:18;;;;;;;48.00;43.83;;;17.10;99.90;;;;;;6242888;22;20083;-84
2023/09/10 00:35:43;;;;;;;42.25;38.20;;;17.10;99.90;;;;;;6240052;23;20524;-85
2023/09/10 00:38:09;;;;;;;94.63;87.72;;;17.10;99.90;;;;;;6241416;23;20503;-85
2023/09/10 00:40:35;;;;;;;92.72;85.90;;;17.10;99.90;;;;;;6240640;23;20066;-85
2023/09/10 00:43:01;;;;;;;63.13;58.22;;;17.10;99.90;;;;;;6241198;23;20016;-85
2023/09/10 00:45:27;;;;;;;82.55;76.72;;;16.70;99.90;;;;;;6265925;22;20040;-84
2023/09/10 00:47:53;;;;;;;95.07;88.32;;;17.00;99.90;;;;;;6242318;22;20044;-85
2023/09/10 00:50:20;;;;;;;84.35;78.53;;;17.00;99.90;;;;;;6242284;22;20396;-84
2023/09/10 00:52:53;;;;;;;68.00;63.13;;;17.00;99.90;;;;;;6242749;22;20008;-85
2023/09/10 00:55:20;;;;;;;57.75;53.08;;;17.00;99.90;;;;;;6241043;23;20095;-84
2023/09/10 00:57:46;;;;;;;77.05;71.47;;;16.90;99.90;;;;;;6240967;23;20399;-84
2023/09/10 01:00:12;;;;;;;86.47;80.50;;;16.90;99.90;;;;;;6215200;23;20062;-85
2023/09/10 01:02:43;;;;;;;58.80;53.88;;;16.80;99.90;;;;;;6240789;23;20019;-85
2023/09/10 01:05:15;;;;;;;75.78;70.10;;;16.60;99.90;;;;;;6239950;23;20343;-85
2023/09/10 01:07:41;;;;;;;85.93;79.23;;;16.80;99.90;;;;;;6266166;22;20012;-85
2023/09/10 01:10:10;;;;;;;87.75;80.95;;;16.80;99.90;;;;;;6242438;23;20513;-85
2023/09/10 01:12:53;;;;;;;79.28;72.88;;;16.80;99.90;;;;;;6242518;22;20016;-85
2023/09/10 01:15:41;;;;;;;86.63;80.03;;;16.80;99.90;;;;;;6242569;22;20012;-85
2023/09/10 01:18:22;;;;;;;82.72;76.25;;;16.70;99.90;;;;;;6215525;23;20023;-85
2023/09/10 01:21:17;;;;;;;60.17;54.95;;;16.70;99.90;;;;;;6240711;23;20019;-84
2023/09/10 01:23:52;;;;;;;57.22;51.75;;;16.70;99.90;;;;;;6215339;23;20227;-84
2023/09/10 01:26:18;;;;;;;59.00;53.83;;;16.70;99.90;;;;;;6266462;22;20039;-84
2023/09/10 01:28:44;;;;;;;67.45;61.83;;;16.70;99.90;;;;;;6241847;22;20451;-84
2023/09/10 01:31:10;;;;;;;60.95;55.40;;;16.70;99.90;;;;;;6240911;23;20022;-85
2023/09/10 01:33:40;;;;;;;69.18;63.45;;;16.60;99.90;;;;;;6265455;22;20047;-85
2023/09/10 01:36:14;;;;;;;79.07;71.90;;;16.60;99.90;;;;;;6240414;23;20322;-85
2023/09/10 01:38:58;;;;;;;68.13;62.17;;;16.60;99.90;;;;;;6241064;23;20023;-85
2023/09/10 01:41:26;;;;;;;61.42;55.90;;;16.70;99.90;;;;;;6215035;23;20052;-84
2023/09/10 01:43:53;;;;;;;63.80;57.60;;;16.60;99.90;;;;;;6265566;22;20447;-84
2023/09/10 01:46:20;;;;;;;65.35;59.38;;;16.60;99.90;;;;;;6242164;22;20008;-84
2023/09/10 01:48:52;;;;;;;79.32;72.57;;;16.50;99.90;;;;;;6214473;23;20123;-84
2023/09/10 01:51:17;;;;;;;81.50;74.88;;;16.50;99.90;;;;;;6215017;23;20012;-85
2023/09/10 01:53:43;;;;;;;72.60;66.28;;;16.50;99.90;;;;;;6242093;23;20320;-84
2023/09/10 01:56:09;;;;;;;66.70;60.40;;;16.40;99.90;;;;;;6240004;23;20024;-84
2023/09/10 01:58:35;;;;;;;89.90;81.75;;;16.50;99.90;;;;;;6214643;23;20347;-84
2023/09/10 02:01:00;;;;;;;69.68;63.53;;;16.50;99.90;;;;;;6265682;22;20008;-84
2023/09/10 02:03:27;;;;;;;80.60;73.70;;;16.40;99.90;;;;;;6239839;23;20016;-84
2023/09/10 02:05:53;;;;;;;83.22;76.03;;;16.50;99.90;;;;;;6265663;22;20370;-84
2023/09/10 02:08:19;;;;;;;74.22;67.50;;;16.40;99.90;;;;;;6214930;23;20016;-85
2023/09/10 02:10:44;;;;;;;61.13;55.22;;;16.40;99.90;;;;;;6215059;23;20020;-84
2023/09/10 02:13:10;;;;;;;75.93;69.30;;;16.40;99.90;;;;;;6214993;23;20016;-84
2023/09/10 02:15:36;;;;;;;58.72;52.70;;;16.40;99.90;;;;;;6240151;23;20009;-85
2023/09/10 02:18:05;;;;;;;78.60;71.03;;;16.40;99.90;;;;;;6241802;23;20384;-84
2023/09/10 02:20:37;;;;;;;85.72;78.40;;;16.40;99.90;;;;;;6265580;22;20393;-85
2023/09/10 02:23:06;;;;;;;89.43;80.85;;;16.50;99.90;;;;;;6240806;23;20012;-85
2023/09/10 02:25:35;;;;;;;86.50;78.30;;;16.30;99.90;;;;;;6265667;22;20013;-85
2023/09/10 02:28:08;;;;;;;82.72;75.47;;;16.40;99.90;;;;;;6240257;23;20042;-84
2023/09/10 02:30:36;;;;;;;78.82;71.55;;;16.30;99.90;;;;;;6240663;23;20012;-85
2023/09/10 02:33:06;;;;;;;77.45;70.15;;;16.30;99.90;;;;;;6214194;23;20047;-85
2023/09/10 02:35:35;;;;;;;80.00;73.13;;;16.30;99.90;;;;;;6265642;22;20020;-85
2023/09/10 02:38:02;;;;;;;75.35;68.88;;;16.30;99.90;;;;;;6240616;23;20012;-84
2023/09/10 02:40:28;;;;;;;68.57;62.50;;;16.20;99.90;;;;;;6240138;23;20012;-84
2023/09/10 02:42:54;;;;;;;59.53;53.63;;;16.20;99.90;;;;;;6240415;23;20014;-85
2023/09/10 02:45:20;;;;;;;74.65;68.05;;;16.20;99.90;;;;;;6214364;23;20087;-84
2023/09/10 02:47:45;;;;;;;75.40;68.30;;;16.10;99.90;;;;;;6241764;23;20035;-85
2023/09/10 02:50:11;;;;;;;68.85;62.60;;;16.20;99.90;;;;;;6214545;23;20031;-84
2023/09/10 02:52:37;;;;;;;68.00;62.20;;;16.20;99.90;;;;;;6240030;23;20171;-84
2023/09/10 02:55:03;;;;;;;72.90;66.70;;;16.00;99.90;;;;;;6241453;23;20008;-84
2023/09/10 02:57:29;;;;;;;71.03;64.80;;;16.10;99.90;;;;;;6214390;23;20066;-84
2023/09/10 02:59:55;;;;;;;79.00;71.53;;;16.10;99.90;;;;;;6239667;23;20012;-84
2023/09/10 03:02:23;;;;;;;68.13;61.42;;;16.10;99.90;;;;;;6240483;23;20023;-84
2023/09/10 03:04:49;;;;;;;76.30;68.22;;;16.10;99.90;;;;;;6241385;22;20012;-84
2023/09/10 03:07:15;;;;;;;82.03;73.40;;;16.10;99.90;;;;;;6265521;22;20103;-84
2023/09/10 03:09:41;;;;;;;73.95;60.03;;;16.00;99.90;;;;;;6241696;23;20051;-85
2023/09/10 03:12:39;;;;;;;78.47;70.40;;;16.10;99.90;;;;;;6216994;23;20043;-85
2023/09/10 03:15:05;;;;;;;79.75;71.55;;;16.10;99.90;;;;;;6232759;22;20022;-84
2023/09/10 03:17:34;;;;;;;70.45;63.05;;;16.00;99.90;;;;;;6243940;22;20363;-83
2023/09/10 03:20:00;;;;;;;88.05;79.47;;;16.00;99.90;;;;;;6241700;23;20316;-85
2023/09/10 03:22:25;;;;;;;78.43;69.90;;;16.00;99.90;;;;;;6244017;22;20023;-85
2023/09/10 03:24:51;;;;;;;67.82;58.60;;;16.00;99.90;;;;;;6241360;23;20023;-84
2023/09/10 03:27:17;;;;;;;89.97;80.93;;;16.00;99.90;;;;;;6216284;23;20016;-85
2023/09/10 03:29:44;;;;;;;85.53;77.40;;;16.00;99.90;;;;;;6240859;23;20009;-85
2023/09/10 03:32:09;;;;;;;86.30;77.53;;;16.40;99.90;;;;;;6241890;23;20350;-85
2023/09/10 03:34:35;;;;;;;90.80;81.97;;;16.20;99.90;;;;;;6241842;23;20018;-85
2023/09/10 03:37:03;;;;;;;79.47;71.45;;;16.00;99.90;;;;;;6216519;23;20184;-85
2023/09/10 03:39:29;;;;;;;71.80;63.67;;;16.00;99.90;;;;;;6216245;23;20034;-85
2023/09/10 03:41:55;;;;;;;77.65;70.18;;;15.90;99.90;;;;;;6216519;23;20514;-85
2023/09/10 03:44:21;;;;;;;70.68;63.78;;;15.90;99.90;;;;;;6241479;23;20374;-85
2023/09/10 03:46:47;;;;;;;69.35;61.88;;;15.50;99.90;;;;;;6216057;23;20016;-85
2023/09/10 03:49:13;;;;;;;81.70;74.18;;;15.90;99.90;;;;;;6241445;23;20051;-85
2023/09/10 03:51:39;;;;;;;76.25;68.32;;;15.90;99.90;;;;;;6216419;23;20012;-85
2023/09/10 03:54:07;;;;;;;77.13;69.55;;;15.90;99.90;;;;;;6243267;22;20008;-85
2023/09/10 03:56:33;;;;;;;73.50;65.50;;;15.80;99.90;;;;;;6215961;23;20402;-85
2023/09/10 03:59:02;;;;;;;78.45;70.60;;;15.90;99.90;;;;;;6266467;22;20101;-85
2023/09/10 04:01:29;;;;;;;68.47;61.70;;;15.80;99.90;;;;;;6241858;23;20008;-84
2023/09/10 04:03:55;;;;;;;80.95;72.88;;;15.80;99.90;;;;;;6216206;23;21315;-85
2023/09/10 04:06:21;;;;;;;76.70;68.88;;;15.80;99.90;;;;;;6216936;23;20024;-85
2023/09/10 04:08:46;;;;;;;65.07;58.55;;;15.70;99.90;;;;;;6216439;23;20016;-85
2023/09/10 04:11:12;;;;;;;77.10;69.60;;;15.70;99.90;;;;;;6241850;23;20144;-85
2023/09/10 04:13:41;;;;;;;68.90;62.00;;;15.70;99.90;;;;;;6215878;23;20012;-85
2023/09/10 04:16:07;;;;;;;72.03;64.20;;;15.70;99.90;;;;;;6241252;23;20020;-84
2023/09/10 04:18:34;;;;;;;84.70;77.00;;;15.70;99.90;;;;;;6241520;23;20455;-84
2023/09/10 04:21:04;;;;;;;74.63;66.72;;;15.60;99.90;;;;;;6216022;23;20317;-85
2023/09/10 04:23:36;;;;;;;74.13;66.70;;;15.70;99.90;;;;;;6242263;22;20012;-85
2023/09/10 04:26:05;;;;;;;75.28;67.88;;;15.70;99.90;;;;;;6216289;23;20138;-85
2023/09/10 04:28:30;;;;;;;82.07;74.50;;;15.60;99.90;;;;;;6241466;23;20341;-84
2023/09/10 04:30:56;;;;;;;65.05;58.33;;;15.50;99.90;;;;;;6216383;23;20015;-85
2023/09/10 04:33:22;;;;;;;68.22;61.33;;;15.60;99.90;;;;;;6241536;23;20012;-84
2023/09/10 04:35:53;;;;;;;81.70;73.97;;;15.60;99.90;;;;;;6216321;23;20346;-85
2023/09/10 04:38:19;;;;;;;87.97;79.25;;;15.60;99.90;;;;;;6268001;22;20009;-85
2023/09/10 04:40:48;;;;;;;83.10;74.43;;;15.60;99.90;;;;;;6216894;23;20320;-84
2023/09/10 04:43:13;;;;;;;81.60;73.20;;;15.70;99.90;;;;;;6243030;23;20012;-85
2023/09/10 04:45:39;;;;;;;85.07;76.70;;;15.60;99.90;;;;;;6216248;23;20023;-85
2023/09/10 04:48:05;;;;;;;83.68;75.00;;;15.60;99.90;;;;;;6216272;23;20012;-85
2023/09/10 04:50:40;;;;;;;91.35;81.95;;;15.60;99.90;;;;;;6216362;23;20518;-85
2023/09/10 04:53:05;;;;;;;78.10;69.75;;;15.60;99.90;;;;;;6241505;23;20009;-85
2023/09/10 04:55:34;;;;;;;84.05;75.55;;;15.60;99.90;;;;;;6241726;23;20312;-85
2023/09/10 04:58:00;;;;;;;82.35;74.15;;;15.60;99.90;;;;;;6215208;23;20066;-85
2023/09/10 05:00:26;;;;;;;86.20;77.30;;;15.80;99.90;;;;;;6215684;23;20447;-85
2023/09/10 05:02:52;;;;;;;84.97;76.22;;;15.60;99.90;;;;;;6241554;23;20012;-85
2023/09/10 05:05:17;;;;;;;87.88;79.22;;;15.60;99.90;;;;;;6242245;22;20346;-85
2023/09/10 05:07:47;;;;;;;76.65;68.55;;;15.50;99.90;;;;;;6215931;23;20024;-85
2023/09/10 05:10:12;;;;;;;82.38;73.55;;;15.50;99.90;;;;;;6242362;22;20466;-84
2023/09/10 05:12:38;;;;;;;80.78;72.43;;;15.60;99.90;;;;;;6215249;23;20012;-85
2023/09/10 05:15:07;;;;;;;87.47;78.70;;;15.60;99.90;;;;;;6242653;23;20012;-84
2023/09/10 05:17:33;;;;;;;86.40;77.13;;;15.50;99.90;;;;;;6242414;22;20439;-85
2023/09/10 05:20:00;;;;;;;84.68;75.88;;;15.60;99.90;;;;;;6245906;22;20085;-84
2023/09/10 05:22:26;;;;;;;83.25;74.25;;;15.20;99.90;;;;;;6215642;23;20050;-85
2023/09/10 05:24:51;;;;;;;84.78;71.68;;;15.60;99.90;;;;;;6265294;22;20446;-84
2023/09/10 05:27:17;;;;;;;81.43;71.07;;;15.70;99.90;;;;;;6266663;22;20572;-84
2023/09/10 05:29:44;;;;;;;79.65;71.43;;;15.70;99.90;;;;;;6216085;23;20056;-84
2023/09/10 05:32:10;;;;;;;82.93;64.40;;;15.40;99.90;;;;;;6216256;23;20431;-85
2023/09/10 05:34:36;;;;;;;91.15;64.68;;;15.80;99.90;;;;;;6241288;23;20019;-86
2023/09/10 05:37:04;;;;;;;82.45;72.45;;;15.80;99.90;;;;;;6215207;23;20407;-84
2023/09/10 05:39:30;;;;;;;81.35;60.38;;;15.90;99.90;;;;;;6216824;23;20024;-85
2023/09/10 05:41:56;;;;;;;79.15;69.38;;;16.00;99.90;;;;;;6240983;23;20091;-85
2023/09/10 05:44:21;;;;;;;88.57;79.38;;;16.00;99.90;;;;;;6266204;22;20016;-85
2023/09/10 05:46:50;;;;;;;74.47;65.75;;;16.00;99.90;;;;;;6215264;23;20455;-85
2023/09/10 05:49:16;;;;;;;78.70;70.05;;;16.20;99.90;;;;;;6241293;23;20016;-86
2023/09/10 05:51:41;;;;;;;69.35;60.42;;;16.20;99.90;;;;;;6240703;23;20324;-85
2023/09/10 05:54:07;;;;;;;67.93;56.90;;;16.30;99.90;;;;;;6240275;23;20066;-84
2023/09/10 05:56:33;;;;;;;81.22;69.72;;;16.20;99.90;;;;;;6214833;23;20020;-85
2023/09/10 05:58:58;;;;;;;67.32;56.22;;;16.40;99.90;;;;;;6240429;23;20099;-84
2023/09/10 06:01:24;;;;;;;70.72;58.17;;;16.50;99.90;;;;;;6242067;22;20016;-85
2023/09/10 06:03:50;;;;;;;76.57;67.85;;;16.60;99.90;;;;;;6214280;23;20039;-85
2023/09/10 06:06:16;;;;;;;74.97;67.10;;;16.70;99.90;;;;;;6239333;23;20055;-84
2023/09/10 06:08:41;;;;;;;66.78;57.42;;;16.70;99.90;;;;;;6238195;23;20020;-84
2023/09/10 06:11:07;;;;;;;67.82;58.05;;;16.90;99.90;;;;;;6241158;23;20008;-84
2023/09/10 06:13:33;;;;;;;64.55;55.35;;;17.00;99.90;;;;;;6239131;23;20027;-84
2023/09/10 06:16:01;;;;;;;71.10;62.55;;;17.00;99.90;;;;;;6264351;22;20103;-85
2023/09/10 06:18:27;;;;;;;65.28;56.00;;;17.20;99.90;;;;;;6241339;23;20047;-84
2023/09/10 06:20:52;;;;;;;66.47;56.90;;;17.40;99.90;;;;;;6214123;23;20016;-85
2023/09/10 06:23:18;;;;;;;66.93;55.47;;;17.90;99.90;;;;;;6238958;23;20098;-84
2023/09/10 06:25:45;;;;;;;62.63;55.80;;;18.50;99.90;;;;;;6239503;23;20023;-85
2023/09/10 06:28:11;;;;;;;59.80;53.42;;;19.20;99.90;;;;;;6240310;23;20068;-85
2023/09/10 06:30:38;;;;;;;59.03;52.70;;;19.80;99.90;;;;;;6241220;23;20101;-85
2023/09/10 06:33:07;;;;;;;61.05;54.60;;;19.90;99.90;;;;;;6213462;23;20008;-84
2023/09/10 06:35:34;;;;;;;53.50;47.92;;;20.00;99.90;;;;;;6238335;23;20016;-84
2023/09/10 06:38:00;;;;;;;61.22;55.35;;;19.70;99.90;;;;;;6239129;23;20024;-85
2023/09/10 06:40:25;;;;;;;55.80;50.03;;;19.60;99.90;;;;;;6240553;22;20039;-84
2023/09/10 06:42:51;;;;;;;60.53;54.60;;;19.60;99.90;;;;;;6238343;23;20062;-84
2023/09/10 06:45:17;;;;;;;53.97;48.42;;;19.50;99.90;;;;;;6240132;23;20012;-84
2023/09/10 06:47:42;;;;;;;52.15;46.67;;;19.60;99.90;;;;;;6240538;23;20046;-84
2023/09/10 06:50:08;;;;;;;53.90;48.33;;;19.50;99.90;;;;;;6213059;23;20023;-84
2023/09/10 06:52:40;;;;;;;64.90;58.28;;;19.60;99.90;;;;;;6238236;23;20016;-83
2023/09/10 06:55:06;;;;;;;60.67;55.05;;;19.60;99.90;;;;;;6240071;23;20066;-84
2023/09/10 06:57:35;;;;;;;62.40;56.10;;;19.70;99.90;;;;;;6238501;23;20012;-84
2023/09/10 07:00:01;;;;;;;56.78;50.75;;;19.70;99.90;;;;;;6239289;22;20458;-84
2023/09/10 07:02:26;;;;;;;52.50;47.00;;;19.80;99.90;;;;;;6240679;23;20083;-83
2023/09/10 07:04:52;;;;;;;52.85;47.33;;;19.90;99.90;;;;;;6238557;23;20462;-84
2023/09/10 07:07:18;;;;;;;57.97;52.30;;;20.00;99.90;;;;;;6238318;23;20012;-84
2023/09/10 07:09:44;;;;;;;54.58;48.95;;;20.10;99.90;;;;;;6213634;23;20020;-84
2023/09/10 07:12:09;;;;;;;56.60;51.17;;;20.20;99.90;;;;;;6240355;23;20016;-84
2023/09/10 07:14:35;;;;;;;55.20;49.42;;;20.30;99.90;;;;;;6238821;23;20447;-84
2023/09/10 07:17:01;;;;;;;52.90;47.20;;;20.40;99.90;;;;;;6213335;23;20091;-84
2023/09/10 07:19:27;;;;;;;56.60;51.33;;;20.40;99.90;;;;;;6239189;23;20016;-84
2023/09/10 07:21:52;;;;;;;56.95;51.53;;;20.60;99.90;;;;;;6213063;23;20012;-84
2023/09/10 07:24:18;;;;;;;58.70;53.33;;;20.60;99.90;;;;;;6239467;23;20139;-84
2023/09/10 07:26:45;;;;;;;57.30;52.10;;;20.70;99.90;;;;;;6238882;23;20008;-84
2023/09/10 07:29:15;;;;;;;51.80;46.90;;;20.80;99.90;;;;;;6213619;23;20156;-84
2023/09/10 07:31:41;;;;;;;51.85;46.88;;;20.90;99.90;;;;;;6264163;22;20016;-84
2023/09/10 07:34:08;;;;;;;66.35;60.58;;;21.00;99.90;;;;;;6213781;23;20020;-84
2023/09/10 07:36:34;;;;;;;64.55;58.90;;;21.10;99.90;;;;;;6238802;22;20039;-84
2023/09/10 07:39:00;;;;;;;66.63;60.65;;;21.20;99.90;;;;;;6213822;23;20020;-84
2023/09/10 07:41:25;;;;;;;64.03;58.58;;;21.30;99.90;;;;;;6239063;23;20026;-84
2023/09/10 07:43:51;;;;;;;67.90;62.00;;;21.20;99.90;;;;;;6239090;23;20062;-84
2023/09/10 07:46:17;;;;;;;63.97;58.45;;;21.50;99.90;;;;;;6239107;23;20012;-84
2023/09/10 07:48:43;;;;;;;68.90;63.22;;;21.50;99.90;;;;;;6213795;23;20378;-84
2023/09/10 07:51:09;;;;;;;65.95;60.28;;;21.60;99.90;;;;;;6238532;23;20095;-84
2023/09/10 07:53:34;;;;;;;67.60;62.13;;;21.70;99.90;;;;;;6239117;23;20008;-84
2023/09/10 07:56:00;;;;;;;67.40;61.75;;;21.50;99.90;;;;;;6215458;23;20016;-84
2023/09/10 07:58:26;;;;;;;66.15;61.17;;;21.80;99.90;;;;;;6241445;23;20047;-84
2023/09/10 08:00:56;;;;;;;73.07;67.50;;;21.90;99.90;;;;;;6241063;23;20020;-83
2023/09/10 08:03:22;;;;;;;75.95;70.07;;;21.90;99.90;;;;;;6215888;23;20381;-84
2023/09/10 08:05:48;;;;;;;63.95;58.95;;;22.00;99.90;;;;;;6240907;23;20020;-84
2023/09/10 08:08:14;;;;;;;56.95;52.50;;;22.10;99.90;;;;;;6243529;22;20470;-84
2023/09/10 08:10:39;;;;;;;55.35;51.08;;;22.20;99.90;;;;;;6241137;23;20320;-84
2023/09/10 08:13:05;;;;;;;63.08;58.05;;;22.20;99.90;;;;;;6242883;23;20027;-84
2023/09/10 08:15:32;;;;;;;56.47;52.15;;;22.30;99.90;;;;;;6240778;23;20019;-84
2023/09/10 08:17:59;;;;;;;67.10;61.92;;;22.40;99.90;;;;;;6242317;23;20095;-84
2023/09/10 08:20:25;;;;;;;61.47;56.80;;;22.50;99.90;;;;;;6216153;23;20389;-84
2023/09/10 08:22:51;;;;;;;53.42;49.60;;;22.60;99.90;;;;;;6241534;23;20517;-84
2023/09/10 08:25:17;;;;;;;58.00;53.63;;;22.60;99.90;;;;;;6241963;23;20020;-85
2023/09/10 08:27:42;;;;;;;53.42;49.53;;;22.80;99.90;;;;;;6267101;22;20016;-84
2023/09/10 08:30:09;;;;;;;60.55;56.10;;;22.80;99.90;;;;;;6244228;23;20054;-84
2023/09/10 08:32:37;;;;;;;55.47;51.40;;;23.30;99.90;;;;;;6244443;23;20386;-84
2023/09/10 08:35:04;;;;;;;56.90;52.95;;;22.80;99.90;;;;;;6216724;23;20004;-84
2023/09/10 08:37:30;;;;;;;58.88;54.22;;;22.90;99.90;;;;;;6243427;23;20040;-85
2023/09/10 08:39:56;;;;;;;51.97;48.13;;;23.00;99.90;;;;;;6242824;23;20019;-84
2023/09/10 08:42:37;;;;;;;58.80;54.75;;;23.10;99.90;;;;;;6243920;23;20096;-84
2023/09/10 08:45:07;;;;;;;67.78;62.53;;;23.20;99.90;;;;;;6244719;23;20038;-84
2023/09/10 08:47:42;;;;;;;46.40;42.58;;;23.30;99.90;;;;;;6244454;23;20018;-84
2023/09/10 08:50:13;;;;;;;67.55;62.90;;;23.40;99.90;;;;;;6217793;23;20027;-84
2023/09/10 08:52:48;;;;;;;52.28;48.83;;;23.50;99.90;;;;;;6243971;23;20093;-84
2023/09/10 08:55:17;;;;;;;51.17;47.53;;;23.60;99.90;;;;;;6270125;22;20020;-84
2023/09/10 08:57:44;;;;;;;48.75;45.22;;;23.70;99.90;;;;;;6245902;22;20066;-84
2023/09/10 09:00:14;;;;;;;48.90;45.53;;;23.80;99.90;;;;;;6218763;23;20035;-84
2023/09/10 09:02:44;;;;;;;45.53;41.65;;;23.90;99.90;;;;;;6245714;22;20016;-84
2023/09/10 09:05:11;;;;;;;38.75;35.85;;;23.90;99.90;;;;;;6219192;23;20016;-84
2023/09/10 09:07:48;;;;;;;41.15;37.92;;;24.10;99.90;;;;;;6246921;22;20004;-85
2023/09/10 09:10:19;;;;;;;50.30;46.88;;;24.50;99.90;;;;;;6251007;23;20008;-85
2023/09/10 09:12:49;;;;;;;35.00;32.58;;;25.30;99.90;;;;;;6221378;23;20008;-85
2023/09/10 09:15:16;;;;;;;38.65;35.78;;;25.80;99.90;;;;;;6224822;23;20042;-86
2023/09/10 09:17:43;;;;;;;41.92;38.80;;;26.10;99.90;;;;;;6252395;23;20016;-86
2023/09/10 09:20:11;;;;;;;60.67;56.97;;;26.70;99.90;;;;;;6226229;23;20091;-86
2023/09/10 09:22:42;;;;;;;45.65;42.80;;;27.20;99.90;;;;;;6226001;23;20047;-86
2023/09/10 09:25:09;;;;;;;52.78;49.47;;;27.40;99.90;;;;;;6226241;23;20024;-86
2023/09/10 09:27:36;;;;;;;30.75;28.55;;;27.20;99.90;;;;;;6252411;22;20019;-86
2023/09/10 09:30:06;;;;;;;45.53;42.30;;;26.90;99.90;;;;;;6226269;23;20087;-86
2023/09/10 09:32:38;;;;;;;50.65;46.40;;;26.50;99.90;;;;;;6252426;22;20056;-86
2023/09/10 09:35:05;;;;;;;46.85;43.85;;;26.10;99.90;;;;;;6228778;23;20020;-86
2023/09/10 09:37:32;;;;;;;42.45;38.90;;;25.90;99.90;;;;;;6255736;23;20023;-88
2023/09/10 09:40:11;;;;;;;46.63;43.45;;;25.70;99.90;;;;;;6255951;23;20339;-86
2023/09/10 09:42:48;;;;;;;52.10;48.65;;;25.60;99.90;;;;;;6229619;23;20019;-87
2023/09/10 09:45:14;;;;;;;53.28;49.88;;;25.60;99.90;;;;;;6226056;23;20016;-86
2023/09/10 09:47:46;;;;;;;35.70;33.30;;;25.60;99.90;;;;;;6247713;23;20099;-85
2023/09/10 09:50:14;;;;;;;39.33;36.40;;;25.60;99.90;;;;;;6221675;23;20090;-85
2023/09/10 09:52:40;;;;;;;47.78;44.60;;;25.60;99.90;;;;;;6220231;23;20008;-86
2023/09/10 09:55:07;;;;;;;40.67;37.95;;;25.60;99.90;;;;;;6247248;23;20023;-84
2023/09/10 09:57:36;;;;;;;49.15;46.00;;;25.60;99.90;;;;;;6247123;23;20091;-86
2023/09/10 10:00:09;;;;;;;41.65;38.92;;;25.70;99.90;;;;;;6246429;23;20343;-86
2023/09/10 10:02:35;;;;;;;53.42;49.35;;;25.80;99.90;;;;;;6221354;23;20351;-87
2023/09/10 10:05:01;;;;;;;46.50;43.55;;;25.90;99.90;;;;;;6226690;23;20016;-85
2023/09/10 10:07:28;;;;;;;44.95;41.90;;;26.00;99.90;;;;;;6255330;22;20079;-87
2023/09/10 10:10:00;;;;;;;40.67;37.67;;;26.00;99.90;;;;;;6274278;22;20020;-86
2023/09/10 10:12:26;;;;;;;62.83;58.73;;;26.10;99.90;;;;;;6224859;23;20074;-85
2023/09/10 10:14:54;;;;;;;53.15;49.65;;;26.10;99.90;;;;;;6222773;23;20263;-86
2023/09/10 10:17:23;;;;;;;49.72;46.10;;;26.20;99.90;;;;;;6218485;23;20471;-85
2023/09/10 10:19:50;;;;;;;45.35;41.90;;;26.30;99.90;;;;;;6245346;22;20039;-85
2023/09/10 10:22:16;;;;;;;39.15;36.45;;;26.30;99.90;;;;;;6271479;22;20020;-85
2023/09/10 10:24:48;;;;;;;34.50;31.60;;;26.40;99.90;;;;;;6245617;23;20012;-84
2023/09/10 10:27:14;;;;;;;46.80;43.45;;;26.50;99.90;;;;;;6247103;23;20012;-85
2023/09/10 10:29:40;;;;;;;51.80;48.50;;;26.50;99.90;;;;;;6271388;22;20024;-85
2023/09/10 10:32:22;;;;;;;42.75;39.92;;;26.50;99.90;;;;;;6249412;22;20008;-85
2023/09/10 10:35:05;;;;;;;30.98;28.48;;;26.60;99.90;;;;;;6223815;23;20012;-86
2023/09/10 10:37:49;;;;;;;47.63;44.55;;;26.50;99.90;;;;;;6245605;23;20012;-86
2023/09/10 10:40:30;;;;;;;33.70;31.30;;;26.40;99.90;;;;;;6220141;23;20011;-85
2023/09/10 10:43:25;;;;;;;31.83;29.10;;;26.30;99.90;;;;;;6243912;23;20167;-86
2023/09/10 10:45:55;;;;;;;31.02;28.45;;;26.40;99.90;;;;;;6244294;23;20019;-85
2023/09/10 10:48:25;;;;;;;39.58;36.88;;;26.40;99.90;;;;;;6219146;23;20026;-85
2023/09/10 10:50:53;;;;;;;33.95;30.70;;;26.50;99.90;;;;;;6219876;23;20012;-85
2023/09/10 10:53:24;;;;;;;32.75;30.02;;;26.60;99.90;;;;;;6244134;22;20091;-86
2023/09/10 10:55:53;;;;;;;45.67;42.72;;;26.70;99.90;;;;;;6248295;22;20038;-86
2023/09/10 10:58:21;;;;;;;37.15;34.42;;;26.80;99.90;;;;;;6222976;23;20087;-86
2023/09/10 11:00:55;;;;;;;44.97;41.92;;;26.90;99.90;;;;;;6221064;23;20087;-86
2023/09/10 11:03:22;;;;;;;36.03;33.05;;;26.90;99.90;;;;;;6247707;23;20012;-84
2023/09/10 11:05:54;;;;;;;44.25;41.17;;;27.00;99.90;;;;;;6220143;23;20367;-86
2023/09/10 11:08:37;;;;;;;49.83;46.53;;;27.10;99.90;;;;;;6217202;23;20023;-83
2023/09/10 11:11:10;;;;;;;47.88;44.55;;;27.20;99.90;;;;;;6241941;22;20113;-83
2023/09/10 11:14:06;;;;;;;49.88;46.10;;;27.20;99.90;;;;;;6241711;23;20020;-85
2023/09/10 11:16:33;;;;;;;46.97;43.33;;;27.20;99.90;;;;;;6217933;23;20016;-85
2023/09/10 11:19:05;;;;;;;48.85;45.35;;;27.30;99.90;;;;;;6243646;23;20209;-85
2023/09/10 11:21:56;;;;;;;51.42;48.10;;;27.40;99.90;;;;;;6245077;22;20201;-85
2023/09/10 11:24:22;;;;;;;53.05;49.35;;;27.40;99.90;;;;;;6220589;23;20074;-85
2023/09/10 11:26:48;;;;;;;47.05;43.90;;;27.50;99.90;;;;;;6244582;23;20012;-86
2023/09/10 11:29:18;;;;;;;42.45;39.53;;;27.40;99.90;;;;;;6245697;23;20008;-85
2023/09/10 11:31:46;;;;;;;58.78;53.97;;;27.40;99.90;;;;;;6272710;22;20012;-86
2023/09/10 11:34:34;;;;;;;61.50;57.55;;;27.30;99.90;;;;;;6249737;22;20008;-85
2023/09/10 11:37:06;;;;;;;55.55;51.85;;;27.50;99.90;;;;;;6243055;23;20012;-86
2023/09/10 11:39:36;;;;;;;65.50;61.45;;;27.60;99.90;;;;;;6222859;23;20067;-85
2023/09/10 11:42:04;;;;;;;64.75;60.47;;;27.70;99.90;;;;;;6248303;23;20493;-86
2023/09/10 11:44:30;;;;;;;62.45;58.40;;;27.80;99.90;;;;;;6249659;23;20436;-85
2023/09/10 11:46:56;;;;;;;88.20;81.50;;;27.70;99.90;;;;;;6223477;23;20042;-86
2023/09/10 11:49:23;;;;;;;76.90;71.80;;;27.70;99.90;;;;;;6225899;23;20012;-88
2023/09/10 11:51:55;;;;;;;106.47;98.93;;;27.50;99.90;;;;;;6229868;23;20008;-86
2023/09/10 11:54:22;;;;;;;48.65;45.55;;;27.50;99.90;;;;;;6253992;23;20016;-87
2023/09/10 11:56:49;;;;;;;96.22;89.78;;;27.60;99.90;;;;;;6252491;23;20077;-87
2023/09/10 11:59:16;;;;;;;89.20;82.47;;;27.70;99.90;;;;;;6252066;23;20091;-86
2023/09/10 12:01:42;;;;;;;107.72;99.90;;;27.80;99.90;;;;;;6251068;23;20455;-87
2023/09/10 12:04:08;;;;;;;108.55;101.68;;;27.80;99.90;;;;;;6254713;22;20020;-87
2023/09/10 12:06:36;;;;;;;105.20;97.00;;;27.70;99.90;;;;;;6252917;23;20024;-86
2023/09/10 12:09:05;;;;;;;76.32;71.65;;;27.70;99.90;;;;;;6255246;23;20012;-86
2023/09/10 12:11:32;;;;;;;86.15;80.18;;;27.60;99.90;;;;;;6226517;23;20051;-85
2023/09/10 12:13:58;;;;;;;78.97;72.88;;;27.60;99.90;;;;;;6253324;22;20039;-85
2023/09/10 12:16:27;;;;;;;85.18;79.28;;;27.90;99.90;;;;;;6225649;23;20023;-85
2023/09/10 12:18:53;;;;;;;122.63;113.85;;;27.80;99.90;;;;;;6250269;23;20039;-85
2023/09/10 12:21:19;;;;;;;88.50;81.90;;;27.90;99.90;;;;;;6250408;23;20012;-86
2023/09/10 12:23:46;;;;;;;107.03;98.57;;;27.80;99.90;;;;;;6251241;23;20016;-85
2023/09/10 12:26:12;;;;;;;205.27;189.23;;;27.90;99.90;;;;;;6251561;23;20016;-86
2023/09/10 12:28:38;;;;;;;234.20;214.75;;;27.90;99.90;;;;;;6250194;23;20082;-86
2023/09/10 12:31:05;;;;;;;224.13;203.20;;;28.00;99.90;;;;;;6224347;23;20096;-85